createdAt,value
2019-04-04T00:00:32.299Z,16.20
2019-04-04T00:01:32.275Z,16.40
2019-04-04T00:02:32.251Z,17.30
2019-04-04T00:03:32.225Z,15.40
2019-04-04T00:04:32.202Z,16.50
2019-04-04T00:05:32.183Z,16.20
2019-04-04T00:06:32.154Z,16.80
2019-04-04T00:07:32.131Z,17.30
2019-04-04T00:08:32.108Z,16.50
2019-04-04T00:09:33.127Z,16.10
2019-04-04T00:10:32.897Z,16.70
2019-04-04T00:11:32.043Z,17.90
2019-04-04T00:12:32.015Z,15.00
2019-04-04T00:13:32.002Z,16.70
2019-04-04T00:14:31.969Z,17.10
2019-04-04T00:15:31.945Z,17.90
2019-04-04T00:16:31.954Z,18.60
2019-04-04T00:17:31.906Z,17.00
2019-04-04T00:18:31.876Z,18.60
2019-04-04T00:19:31.854Z,16.90
2019-04-04T00:20:32.394Z,17.70
2019-04-04T00:21:31.995Z,19.40
2019-04-04T00:22:31.794Z,16.90
2019-04-04T00:23:31.769Z,17.30
2019-04-04T00:24:31.749Z,18.30
2019-04-04T00:25:31.721Z,18.70
2019-04-04T00:26:31.690Z,19.50
2019-04-04T00:27:31.669Z,18.80
2019-04-04T00:28:31.643Z,20.10
2019-04-04T00:29:31.624Z,20.30
2019-04-04T00:30:31.616Z,19.80
2019-04-04T00:31:31.580Z,22.90
2019-04-04T00:32:31.550Z,20.40
2019-04-04T00:33:31.528Z,20.50
2019-04-04T00:34:31.504Z,21.20
2019-04-04T00:35:31.733Z,19.60
2019-04-04T00:36:33.703Z,18.20
2019-04-04T00:37:31.435Z,20.00
2019-04-04T00:38:31.410Z,19.00
2019-04-04T00:39:31.386Z,18.50
2019-04-04T00:40:31.363Z,20.40
2019-04-04T00:41:31.350Z,19.80
2019-04-04T00:42:31.319Z,20.40
2019-04-04T00:43:31.296Z,19.50
2019-04-04T00:44:31.286Z,23.80
2019-04-04T00:45:31.249Z,21.90
2019-04-04T00:46:31.495Z,21.30
2019-04-04T00:47:32.647Z,20.10
2019-04-04T00:48:32.174Z,19.20
2019-04-04T00:49:31.155Z,21.80
2019-04-04T00:50:31.138Z,22.80
2019-04-04T00:51:31.109Z,21.50
2019-04-04T00:52:31.086Z,23.20
2019-04-04T00:53:31.064Z,21.90
2019-04-04T00:54:31.038Z,21.90
2019-04-04T00:55:31.024Z,23.80
2019-04-04T00:56:30.991Z,21.10
2019-04-04T00:57:30.970Z,23.50
2019-04-04T00:58:30.944Z,23.30
2019-04-04T00:59:30.921Z,22.00
2019-04-04T01:00:30.899Z,23.70
2019-04-04T01:01:30.908Z,21.20
2019-04-04T01:02:30.857Z,21.10
2019-04-04T01:03:30.849Z,19.90
2019-04-04T01:04:31.150Z,21.90
2019-04-04T01:05:32.031Z,20.20
2019-04-04T01:06:33.482Z,21.00
2019-04-04T01:07:30.738Z,21.70
2019-04-04T01:08:30.711Z,19.50
2019-04-04T01:09:30.689Z,21.00
2019-04-04T01:10:30.665Z,20.00
2019-04-04T01:11:30.642Z,19.30
2019-04-04T01:12:30.620Z,21.50
2019-04-04T01:13:30.599Z,18.80
2019-04-04T01:14:30.575Z,19.60
2019-04-04T01:15:31.303Z,18.70
2019-04-04T01:16:33.361Z,20.40
2019-04-04T01:17:30.504Z,17.60
2019-04-04T01:18:30.480Z,17.70
2019-04-04T01:19:30.465Z,17.80
2019-04-04T01:20:30.435Z,19.50
2019-04-04T01:21:30.413Z,20.10
2019-04-04T01:22:30.385Z,19.80
2019-04-04T01:23:30.362Z,20.40
2019-04-04T01:24:30.337Z,18.90
2019-04-04T01:25:32.674Z,18.90
2019-04-04T01:26:30.293Z,21.60
2019-04-04T01:27:30.267Z,21.70
2019-04-04T01:28:30.247Z,21.40
2019-04-04T01:29:30.221Z,21.60
2019-04-04T01:30:30.211Z,21.00
2019-04-04T01:31:30.173Z,20.10
2019-04-04T01:32:30.151Z,23.60
2019-04-04T01:33:30.126Z,21.20
2019-04-04T01:34:30.104Z,22.50
2019-04-04T01:35:30.082Z,19.60
2019-04-04T01:36:30.057Z,20.70
2019-04-04T01:37:30.043Z,22.50
2019-04-04T01:38:30.009Z,20.80
2019-04-04T01:39:31.393Z,20.00
2019-04-04T01:40:32.792Z,22.40
2019-04-04T01:41:29.944Z,19.60
2019-04-04T01:42:29.918Z,18.80
2019-04-04T01:43:29.899Z,18.70
2019-04-04T01:44:29.870Z,18.50
2019-04-04T01:45:29.847Z,18.40
2019-04-04T01:46:29.831Z,18.30
2019-04-04T01:47:29.798Z,19.30
2019-04-04T01:48:29.778Z,18.00
2019-04-04T01:49:29.757Z,18.10
2019-04-04T01:50:29.756Z,16.70
2019-04-04T01:51:29.703Z,17.60
2019-04-04T01:52:29.700Z,17.90
2019-04-04T01:53:30.149Z,19.40
2019-04-04T01:54:31.709Z,17.90
2019-04-04T01:55:29.611Z,15.60
2019-04-04T01:56:29.588Z,20.40
2019-04-04T01:57:29.572Z,18.10
2019-04-04T01:58:29.542Z,18.30
2019-04-04T01:59:29.519Z,20.60
2019-04-04T02:00:29.495Z,19.00
2019-04-04T02:01:29.470Z,19.10
2019-04-04T02:02:29.448Z,20.50
2019-04-04T02:03:29.424Z,17.60
2019-04-04T02:04:29.402Z,18.60
2019-04-04T02:05:29.376Z,20.40
2019-04-04T02:06:29.353Z,19.90
2019-04-04T02:07:29.725Z,20.30
2019-04-04T02:08:31.299Z,19.90
2019-04-04T02:09:29.283Z,21.80
2019-04-04T02:10:29.261Z,18.80
2019-04-04T02:11:29.290Z,20.00
2019-04-04T02:12:29.215Z,18.80
2019-04-04T02:13:29.190Z,18.20
2019-04-04T02:14:29.166Z,21.10
2019-04-04T02:15:29.143Z,20.80
2019-04-04T02:16:29.123Z,20.40
2019-04-04T02:17:29.097Z,18.70
2019-04-04T02:18:29.072Z,18.80
2019-04-04T02:19:29.051Z,18.70
2019-04-04T02:20:29.036Z,19.80
2019-04-04T02:21:29.285Z,20.20
2019-04-04T02:22:31.038Z,17.50
2019-04-04T02:23:31.431Z,22.40
2019-04-04T02:24:29.820Z,22.10
2019-04-04T02:25:28.910Z,19.80
2019-04-04T02:26:28.888Z,18.60
2019-04-04T02:27:28.861Z,20.60
2019-04-04T02:28:28.838Z,20.70
2019-04-04T02:29:28.815Z,18.50
2019-04-04T02:30:28.793Z,22.70
2019-04-04T02:31:28.768Z,22.50
2019-04-04T02:32:28.745Z,21.90
2019-04-04T02:33:32.186Z,19.00
2019-04-04T02:34:28.698Z,24.20
2019-04-04T02:35:28.685Z,21.70
2019-04-04T02:36:28.651Z,21.10
2019-04-04T02:37:28.626Z,19.60
2019-04-04T02:38:28.604Z,21.10
2019-04-04T02:39:28.580Z,22.00
2019-04-04T02:40:28.557Z,21.80
2019-04-04T02:41:28.534Z,21.60
2019-04-04T02:42:28.508Z,24.90
2019-04-04T02:43:28.763Z,24.10
2019-04-04T02:44:31.666Z,22.00
2019-04-04T02:45:28.447Z,21.20
2019-04-04T02:46:28.414Z,22.50
2019-04-04T02:47:28.393Z,23.20
2019-04-04T02:48:28.465Z,22.50
2019-04-04T02:49:29.554Z,21.00
2019-04-04T02:50:28.322Z,24.10
2019-04-04T02:51:28.334Z,23.10
2019-04-04T02:52:28.272Z,21.20
2019-04-04T02:53:28.246Z,22.40
2019-04-04T02:54:28.233Z,22.70
2019-04-04T02:55:31.046Z,25.90
2019-04-04T02:56:28.185Z,22.50
2019-04-04T02:57:28.159Z,22.90
2019-04-04T02:58:28.129Z,25.50
2019-04-04T02:59:28.106Z,23.30
2019-04-04T03:00:28.125Z,24.30
2019-04-04T03:01:31.740Z,23.80
2019-04-04T03:02:28.037Z,24.80
2019-04-04T03:03:28.013Z,21.70
2019-04-04T03:04:27.990Z,21.40
2019-04-04T03:05:27.972Z,26.00
2019-04-04T03:06:27.953Z,23.70
2019-04-04T03:07:30.961Z,24.80
2019-04-04T03:08:27.906Z,23.40
2019-04-04T03:09:27.884Z,26.00
2019-04-04T03:10:27.855Z,26.30
2019-04-04T03:11:27.819Z,29.00
2019-04-04T03:12:27.797Z,27.30
2019-04-04T03:13:31.201Z,25.50
2019-04-04T03:14:27.751Z,24.30
2019-04-04T03:15:27.724Z,24.50
2019-04-04T03:16:27.709Z,26.90
2019-04-04T03:17:31.595Z,26.90
2019-04-04T03:18:27.655Z,24.50
2019-04-04T03:19:27.628Z,25.40
2019-04-04T03:20:27.604Z,26.60
2019-04-04T03:21:27.582Z,24.60
2019-04-04T03:22:28.361Z,23.00
2019-04-04T03:23:27.539Z,23.60
2019-04-04T03:24:27.513Z,25.30
2019-04-04T03:25:27.487Z,22.70
2019-04-04T03:26:27.462Z,26.40
2019-04-04T03:27:27.442Z,24.30
2019-04-04T03:28:31.464Z,25.00
2019-04-04T03:29:27.402Z,24.40
2019-04-04T03:30:27.374Z,24.80
2019-04-04T03:31:27.349Z,23.20
2019-04-04T03:32:27.320Z,28.00
2019-04-04T03:33:31.239Z,24.50
2019-04-04T03:34:27.279Z,25.80
2019-04-04T03:35:28.971Z,23.50
2019-04-04T03:36:27.230Z,20.70
2019-04-04T03:37:27.198Z,22.10
2019-04-04T03:38:27.176Z,21.90
2019-04-04T03:39:27.151Z,22.50
2019-04-04T03:40:27.127Z,22.00
2019-04-04T03:41:27.577Z,23.00
2019-04-04T03:42:27.080Z,22.00
2019-04-04T03:43:27.053Z,24.80
2019-04-04T03:44:27.032Z,24.90
2019-04-04T03:45:27.643Z,23.60
2019-04-04T03:46:26.983Z,21.80
2019-04-04T03:47:26.961Z,22.60
2019-04-04T03:48:26.946Z,25.50
2019-04-04T03:49:26.910Z,25.30
2019-04-04T03:50:30.291Z,23.40
2019-04-04T03:51:26.862Z,24.10
2019-04-04T03:52:26.837Z,24.50
2019-04-04T03:53:26.827Z,24.10
2019-04-04T03:54:26.796Z,24.70
2019-04-04T03:55:27.874Z,22.10
2019-04-04T03:56:26.747Z,21.50
2019-04-04T03:57:26.721Z,21.90
2019-04-04T03:58:27.979Z,22.20
2019-04-04T03:59:26.672Z,22.30
2019-04-04T04:00:26.654Z,20.10
2019-04-04T04:01:26.622Z,22.70
2019-04-04T04:02:26.604Z,20.80
2019-04-04T04:03:26.579Z,22.80
2019-04-04T04:04:28.257Z,23.00
2019-04-04T04:05:26.533Z,22.40
2019-04-04T04:06:26.667Z,22.50
2019-04-04T04:07:26.481Z,23.90
2019-04-04T04:08:26.464Z,22.60
2019-04-04T04:09:27.326Z,23.80
2019-04-04T04:10:26.406Z,22.40
2019-04-04T04:11:26.381Z,24.80
2019-04-04T04:12:26.361Z,22.80
2019-04-04T04:13:26.332Z,23.30
2019-04-04T04:14:26.314Z,22.90
2019-04-04T04:15:29.331Z,28.60
2019-04-04T04:16:26.261Z,25.40
2019-04-04T04:17:26.247Z,24.50
2019-04-04T04:18:26.211Z,27.40
2019-04-04T04:19:30.041Z,25.10
2019-04-04T04:20:26.163Z,22.60
2019-04-04T04:21:26.140Z,25.90
2019-04-04T04:22:26.118Z,23.80
2019-04-04T04:23:26.092Z,25.20
2019-04-04T04:24:26.756Z,23.00
2019-04-04T04:25:26.048Z,24.30
2019-04-04T04:26:26.024Z,23.90
2019-04-04T04:27:26.002Z,24.30
2019-04-04T04:28:25.982Z,22.60
2019-04-04T04:29:29.356Z,23.60
2019-04-04T04:30:25.922Z,25.00
2019-04-04T04:31:25.898Z,26.40
2019-04-04T04:32:25.878Z,26.10
2019-04-04T04:33:28.795Z,24.60
2019-04-04T04:34:25.831Z,28.30
2019-04-04T04:35:25.804Z,28.40
2019-04-04T04:36:25.780Z,27.70
2019-04-04T04:37:25.755Z,27.20
2019-04-04T04:38:27.033Z,24.50
2019-04-04T04:39:25.739Z,27.90
2019-04-04T04:40:25.684Z,30.40
2019-04-04T04:41:25.660Z,27.00
2019-04-04T04:42:26.646Z,29.10
2019-04-04T04:43:25.611Z,28.30
2019-04-04T04:44:25.603Z,29.00
2019-04-04T04:45:25.569Z,28.20
2019-04-04T04:46:25.538Z,29.40
2019-04-04T04:47:25.512Z,36.10
2019-04-04T04:48:26.094Z,29.60
2019-04-04T04:49:25.485Z,29.00
2019-04-04T04:50:25.440Z,27.70
2019-04-04T04:51:25.413Z,28.80
2019-04-04T04:52:25.389Z,30.80
2019-04-04T04:53:25.366Z,34.10
2019-04-04T04:54:25.347Z,35.20
2019-04-04T04:55:27.100Z,30.20
2019-04-04T04:56:25.292Z,32.90
2019-04-04T04:57:29.805Z,28.70
2019-04-04T04:58:25.255Z,28.20
2019-04-04T04:59:25.222Z,30.50
2019-04-04T05:00:27.731Z,30.00
2019-04-04T05:01:25.172Z,29.50
2019-04-04T05:02:25.148Z,31.70
2019-04-04T05:03:25.124Z,29.40
2019-04-04T05:04:27.986Z,31.80
2019-04-04T05:05:25.076Z,33.90
2019-04-04T05:06:25.068Z,36.30
2019-04-04T05:07:25.185Z,33.00
2019-04-04T05:08:25.002Z,32.60
2019-04-04T05:09:24.980Z,30.00
2019-04-04T05:10:24.960Z,28.90
2019-04-04T05:11:24.932Z,29.40
2019-04-04T05:12:24.907Z,28.60
2019-04-04T05:13:28.557Z,32.10
2019-04-04T05:14:24.858Z,26.90
2019-04-04T05:15:24.838Z,27.80
2019-04-04T05:16:24.809Z,25.20
2019-04-04T05:17:24.786Z,27.80
2019-04-04T05:18:24.762Z,28.20
2019-04-04T05:19:24.737Z,27.10
2019-04-04T05:20:25.639Z,29.50
2019-04-04T05:21:28.512Z,28.10
2019-04-04T05:22:24.665Z,37.00
2019-04-04T05:23:24.685Z,29.10
2019-04-04T05:24:24.629Z,28.60
2019-04-04T05:25:24.592Z,26.70
2019-04-04T05:26:24.570Z,30.40
2019-04-04T05:27:24.544Z,28.80
2019-04-04T05:28:24.520Z,28.40
2019-04-04T05:29:24.523Z,28.10
2019-04-04T05:30:24.482Z,30.40
2019-04-04T05:31:24.453Z,31.20
2019-04-04T05:32:24.447Z,29.60
2019-04-04T05:33:26.858Z,30.80
2019-04-04T05:34:24.374Z,31.10
2019-04-04T05:35:24.355Z,32.50
2019-04-04T05:36:24.328Z,30.80
2019-04-04T05:37:27.227Z,30.90
2019-04-04T05:38:24.290Z,31.70
2019-04-04T05:39:24.285Z,29.50
2019-04-04T05:40:24.339Z,27.90
2019-04-04T05:41:27.046Z,30.40
2019-04-04T05:42:24.197Z,27.80
2019-04-04T05:43:24.310Z,27.70
2019-04-04T05:44:24.146Z,33.20
2019-04-04T05:45:24.111Z,24.60
2019-04-04T05:46:24.086Z,25.80
2019-04-04T05:47:24.078Z,22.00
2019-04-04T05:48:24.040Z,25.70
2019-04-04T05:49:24.016Z,25.60
2019-04-04T05:50:23.995Z,27.70
2019-04-04T05:51:23.969Z,24.40
2019-04-04T05:52:23.959Z,25.70
2019-04-04T05:53:23.927Z,26.60
2019-04-04T05:54:23.897Z,26.70
2019-04-04T05:55:23.871Z,24.00
2019-04-04T05:56:24.433Z,25.60
2019-04-04T05:57:23.871Z,28.20
2019-04-04T05:58:23.808Z,26.00
2019-04-04T05:59:24.480Z,26.70
2019-04-04T06:00:26.950Z,24.20
2019-04-04T06:01:23.728Z,26.20
2019-04-04T06:02:23.708Z,29.30
2019-04-04T06:03:23.680Z,26.10
2019-04-04T06:04:23.657Z,26.60
2019-04-04T06:05:26.980Z,24.70
2019-04-04T06:06:23.620Z,23.30
2019-04-04T06:07:23.606Z,22.80
2019-04-04T06:08:23.573Z,21.50
2019-04-04T06:09:23.539Z,22.10
2019-04-04T06:10:23.518Z,21.00
2019-04-04T06:11:23.539Z,22.40
2019-04-04T06:12:25.123Z,20.90
2019-04-04T06:13:26.693Z,22.50
2019-04-04T06:14:23.423Z,21.40
2019-04-04T06:15:23.396Z,22.20
2019-04-04T06:16:23.383Z,21.80
2019-04-04T06:17:23.360Z,24.40
2019-04-04T06:18:23.337Z,21.80
2019-04-04T06:19:23.303Z,20.70
2019-04-04T06:20:23.294Z,22.10
2019-04-04T06:21:23.255Z,24.00
2019-04-04T06:22:23.237Z,24.60
2019-04-04T06:23:25.079Z,21.60
2019-04-04T06:24:23.185Z,25.10
2019-04-04T06:25:23.342Z,24.80
2019-04-04T06:26:23.145Z,24.10
2019-04-04T06:27:23.131Z,25.60
2019-04-04T06:28:23.125Z,24.60
2019-04-04T06:29:23.066Z,24.40
2019-04-04T06:30:23.040Z,24.30
2019-04-04T06:31:26.270Z,22.50
2019-04-04T06:32:22.997Z,22.00
2019-04-04T06:33:22.978Z,22.10
2019-04-04T06:34:24.129Z,27.80
2019-04-04T06:35:22.931Z,24.30
2019-04-04T06:36:22.897Z,24.20
2019-04-04T06:37:22.875Z,26.10
2019-04-04T06:38:23.497Z,22.50
2019-04-04T06:39:23.013Z,22.30
2019-04-04T06:40:22.805Z,22.10
2019-04-04T06:41:22.784Z,21.60
2019-04-04T06:42:22.771Z,22.30
2019-04-04T06:43:22.733Z,23.60
2019-04-04T06:44:22.723Z,21.90
2019-04-04T06:45:22.689Z,23.80
2019-04-04T06:46:22.973Z,22.20
2019-04-04T06:47:23.177Z,23.90
2019-04-04T06:48:22.622Z,21.80
2019-04-04T06:49:22.593Z,22.00
2019-04-04T06:50:22.576Z,21.80
2019-04-04T06:51:22.560Z,23.00
2019-04-04T06:52:23.531Z,22.30
2019-04-04T06:53:22.820Z,21.90
2019-04-04T06:54:25.140Z,23.80
2019-04-04T06:55:22.469Z,23.70
2019-04-04T06:56:22.429Z,24.60
2019-04-04T06:57:22.410Z,24.20
2019-04-04T06:58:22.381Z,25.20
2019-04-04T06:59:22.357Z,24.20
2019-04-04T07:00:22.338Z,24.10
2019-04-04T07:01:25.196Z,23.20
2019-04-04T07:02:23.954Z,24.00
2019-04-04T07:03:22.262Z,28.10
2019-04-04T07:04:22.245Z,27.20
2019-04-04T07:05:22.218Z,25.00
2019-04-04T07:06:22.196Z,24.10
2019-04-04T07:07:22.173Z,27.60
2019-04-04T07:08:22.146Z,24.90
2019-04-04T07:09:22.123Z,26.20
2019-04-04T07:10:22.166Z,28.90
2019-04-04T07:11:22.084Z,36.30
2019-04-04T07:12:28.071Z,30.70
2019-04-04T07:13:26.902Z,34.40
2019-04-04T07:14:22.004Z,32.20
2019-04-04T07:15:21.992Z,36.60
2019-04-04T07:16:21.967Z,30.50
2019-04-04T07:17:21.938Z,32.00
2019-04-04T07:18:21.914Z,32.30
2019-04-04T07:19:21.895Z,33.50
2019-04-04T07:20:21.873Z,30.00
2019-04-04T07:21:21.857Z,33.10
2019-04-04T07:22:24.534Z,32.10
2019-04-04T07:23:21.804Z,34.30
2019-04-04T07:24:21.779Z,32.60
2019-04-04T07:25:21.752Z,34.70
2019-04-04T07:26:21.732Z,32.90
2019-04-04T07:27:21.707Z,34.50
2019-04-04T07:28:21.687Z,32.50
2019-04-04T07:29:23.025Z,32.40
2019-04-04T07:30:21.634Z,42.70
2019-04-04T07:31:21.608Z,34.40
2019-04-04T07:32:21.585Z,34.80
2019-04-04T07:33:21.591Z,30.40
2019-04-04T07:34:21.542Z,30.80
2019-04-04T07:35:21.525Z,32.80
2019-04-04T07:36:21.493Z,31.20
2019-04-04T07:37:22.171Z,31.60
2019-04-04T07:38:21.447Z,29.30
2019-04-04T07:39:21.423Z,31.70
2019-04-04T07:40:21.400Z,34.30
2019-04-04T07:41:21.393Z,29.60
2019-04-04T07:42:21.354Z,34.00
2019-04-04T07:43:21.332Z,34.40
2019-04-04T07:44:23.279Z,31.40
2019-04-04T07:45:21.286Z,33.30
2019-04-04T07:46:21.263Z,35.10
2019-04-04T07:47:21.239Z,34.40
2019-04-04T07:48:21.258Z,34.30
2019-04-04T07:49:23.329Z,38.90
2019-04-04T07:50:21.178Z,33.30
2019-04-04T07:51:21.163Z,30.90
2019-04-04T07:52:21.123Z,37.60
2019-04-04T07:53:21.108Z,35.20
2019-04-04T07:54:21.078Z,34.30
2019-04-04T07:55:21.063Z,34.80
2019-04-04T07:56:21.037Z,35.30
2019-04-04T07:57:21.008Z,34.70
2019-04-04T07:58:21.013Z,38.40
2019-04-04T07:59:20.967Z,33.30
2019-04-04T08:00:20.957Z,35.30
2019-04-04T08:01:20.918Z,34.40
2019-04-04T08:02:20.897Z,36.00
2019-04-04T08:03:20.876Z,30.80
2019-04-04T08:04:20.849Z,30.90
2019-04-04T08:05:20.837Z,31.90
2019-04-04T08:06:20.805Z,33.90
2019-04-04T08:07:20.779Z,35.70
2019-04-04T08:08:20.757Z,33.00
2019-04-04T08:09:20.737Z,31.10
2019-04-04T08:10:21.189Z,33.30
2019-04-04T08:11:20.706Z,31.10
2019-04-04T08:12:20.667Z,30.50
2019-04-04T08:13:20.644Z,34.80
2019-04-04T08:14:20.622Z,36.80
2019-04-04T08:15:20.607Z,33.30
2019-04-04T08:16:20.572Z,30.70
2019-04-04T08:17:20.560Z,33.20
2019-04-04T08:18:20.542Z,31.10
2019-04-04T08:19:20.505Z,32.30
2019-04-04T08:20:20.491Z,37.70
2019-04-04T08:21:20.462Z,35.30
2019-04-04T08:22:20.519Z,35.00
2019-04-04T08:23:20.423Z,33.90
2019-04-04T08:24:20.400Z,34.40
2019-04-04T08:25:20.412Z,36.10
2019-04-04T08:26:20.346Z,33.00
2019-04-04T08:27:20.391Z,30.50
2019-04-04T08:28:20.319Z,32.50
2019-04-04T08:29:20.282Z,31.30
2019-04-04T08:30:20.258Z,29.40
2019-04-04T08:31:20.241Z,30.50
2019-04-04T08:32:20.217Z,29.80
2019-04-04T08:33:20.209Z,28.80
2019-04-04T08:34:20.169Z,26.40
2019-04-04T08:35:20.150Z,27.50
2019-04-04T08:36:20.120Z,24.80
2019-04-04T08:37:20.100Z,27.60
2019-04-04T08:38:20.085Z,25.60
2019-04-04T08:39:20.051Z,26.30
2019-04-04T08:40:20.047Z,26.80
2019-04-04T08:41:20.009Z,27.90
2019-04-04T08:42:20.005Z,22.50
2019-04-04T08:43:19.962Z,24.00
2019-04-04T08:44:19.944Z,25.40
2019-04-04T08:45:19.925Z,25.40
2019-04-04T08:46:20.229Z,21.60
2019-04-04T08:47:19.881Z,26.70
2019-04-04T08:48:19.851Z,22.80
2019-04-04T08:49:19.833Z,20.10
2019-04-04T08:50:19.811Z,22.50
2019-04-04T08:51:19.797Z,25.10
2019-04-04T08:52:20.840Z,22.40
2019-04-04T08:53:19.755Z,22.10
2019-04-04T08:54:19.717Z,23.40
2019-04-04T08:55:19.693Z,22.50
2019-04-04T08:56:19.685Z,20.90
2019-04-04T08:57:19.645Z,25.30
2019-04-04T08:58:19.627Z,22.40
2019-04-04T08:59:19.610Z,22.60
2019-04-04T09:00:19.580Z,22.10
2019-04-04T09:01:19.572Z,22.80
2019-04-04T09:02:19.533Z,24.50
2019-04-04T09:03:19.526Z,26.80
2019-04-04T09:04:19.500Z,25.40
2019-04-04T09:05:19.470Z,23.60
2019-04-04T09:06:19.465Z,25.80
2019-04-04T09:07:19.430Z,23.20
2019-04-04T09:08:19.400Z,26.20
2019-04-04T09:09:19.380Z,29.60
2019-04-04T09:10:19.400Z,28.10
2019-04-04T09:11:19.332Z,22.40
2019-04-04T09:12:19.309Z,20.80
2019-04-04T09:13:19.297Z,24.70
2019-04-04T09:14:19.266Z,21.50
2019-04-04T09:15:19.251Z,28.80
2019-04-04T09:16:19.228Z,24.40
2019-04-04T09:17:19.199Z,21.20
2019-04-04T09:18:19.177Z,21.40
2019-04-04T09:19:19.158Z,22.80
2019-04-04T09:20:19.131Z,21.50
2019-04-04T09:21:19.109Z,21.30
2019-04-04T09:22:19.091Z,21.10
2019-04-04T09:23:19.064Z,22.20
2019-04-04T09:24:19.053Z,23.40
2019-04-04T09:25:19.022Z,22.30
2019-04-04T09:26:18.999Z,20.60
2019-04-04T09:27:18.984Z,20.90
2019-04-04T09:28:18.954Z,17.60
2019-04-04T09:29:18.941Z,21.10
2019-04-04T09:30:18.910Z,17.20
2019-04-04T09:31:18.888Z,18.10
2019-04-04T09:32:18.874Z,18.60
2019-04-04T09:33:21.035Z,19.70
2019-04-04T09:34:18.838Z,18.50
2019-04-04T09:35:18.799Z,19.10
2019-04-04T09:36:18.777Z,20.20
2019-04-04T09:37:18.756Z,17.10
2019-04-04T09:38:18.734Z,17.40
2019-04-04T09:39:18.713Z,18.70
2019-04-04T09:40:18.691Z,18.10
2019-04-04T09:41:18.669Z,18.70
2019-04-04T09:42:18.649Z,19.00
2019-04-04T09:43:18.624Z,17.10
2019-04-04T09:44:18.602Z,18.50
2019-04-04T09:45:18.592Z,21.30
2019-04-04T09:46:18.570Z,15.70
2019-04-04T09:47:18.536Z,15.70
2019-04-04T09:48:18.515Z,14.60
2019-04-04T09:49:18.496Z,15.30
2019-04-04T09:50:18.473Z,18.00
2019-04-04T09:51:18.458Z,18.20
2019-04-04T09:52:18.431Z,16.80
2019-04-04T09:53:18.414Z,17.30
2019-04-04T09:54:19.484Z,15.20
2019-04-04T09:55:18.367Z,15.80
2019-04-04T09:56:18.350Z,19.60
2019-04-04T09:57:18.323Z,13.80
2019-04-04T09:58:18.319Z,16.10
2019-04-04T09:59:18.279Z,13.30
2019-04-04T10:00:18.265Z,14.50
2019-04-04T10:01:18.244Z,13.50
2019-04-04T10:02:18.336Z,12.50
2019-04-04T10:03:18.196Z,14.30
2019-04-04T10:04:18.182Z,15.60
2019-04-04T10:05:18.163Z,15.70
2019-04-04T10:06:18.140Z,16.60
2019-04-04T10:07:18.107Z,15.20
2019-04-04T10:08:18.084Z,16.20
2019-04-04T10:09:18.064Z,17.00
2019-04-04T10:10:18.050Z,15.50
2019-04-04T10:11:18.022Z,14.40
2019-04-04T10:12:17.999Z,12.80
2019-04-04T10:13:17.992Z,13.80
2019-04-04T10:14:17.959Z,15.40
2019-04-04T10:15:17.943Z,16.40
2019-04-04T10:16:17.917Z,15.00
2019-04-04T10:17:17.898Z,14.20
2019-04-04T10:18:17.875Z,16.40
2019-04-04T10:19:17.853Z,14.80
2019-04-04T10:20:17.830Z,15.10
2019-04-04T10:21:17.809Z,14.80
2019-04-04T10:22:17.792Z,15.90
2019-04-04T10:23:17.786Z,16.50
2019-04-04T10:24:17.751Z,15.50
2019-04-04T10:25:17.730Z,15.60
2019-04-04T10:26:17.705Z,14.40
2019-04-04T10:27:17.684Z,15.60
2019-04-04T10:28:17.661Z,17.00
2019-04-04T10:29:17.645Z,16.40
2019-04-04T10:30:17.620Z,16.30
2019-04-04T10:31:17.599Z,15.90
2019-04-04T10:32:17.576Z,16.70
2019-04-04T10:33:17.562Z,18.10
2019-04-04T10:34:17.536Z,22.20
2019-04-04T10:35:17.518Z,18.20
2019-04-04T10:36:17.499Z,19.20
2019-04-04T10:37:17.470Z,15.50
2019-04-04T10:38:17.452Z,16.90
2019-04-04T10:39:28.246Z,16.60
2019-04-04T10:40:17.417Z,18.30
2019-04-04T10:41:17.384Z,16.00
2019-04-04T10:42:17.364Z,16.00
2019-04-04T10:43:17.341Z,15.80
2019-04-04T10:44:17.323Z,14.50
2019-04-04T10:45:17.307Z,15.40
2019-04-04T10:46:17.287Z,18.20
2019-04-04T10:47:17.254Z,16.60
2019-04-04T10:48:17.239Z,19.40
2019-04-04T10:49:17.219Z,16.70
2019-04-04T10:50:17.266Z,15.50
2019-04-04T10:51:17.167Z,16.30
2019-04-04T10:52:17.153Z,16.60
2019-04-04T10:53:17.145Z,15.70
2019-04-04T10:54:17.107Z,15.10
2019-04-04T10:55:17.087Z,16.90
2019-04-04T10:56:17.062Z,16.90
2019-04-04T10:57:17.042Z,15.20
2019-04-04T10:58:17.135Z,17.20
2019-04-04T10:59:16.997Z,19.50
2019-04-04T11:00:16.976Z,19.90
2019-04-04T11:01:16.978Z,18.30
2019-04-04T11:02:16.935Z,16.80
2019-04-04T11:03:16.910Z,17.10
2019-04-04T11:04:16.891Z,16.10
2019-04-04T11:05:16.872Z,14.30
2019-04-04T11:06:16.851Z,16.40
2019-04-04T11:07:16.824Z,15.40
2019-04-04T11:08:16.806Z,20.30
2019-04-04T11:09:16.780Z,14.70
2019-04-04T11:10:16.769Z,16.60
2019-04-04T11:11:16.738Z,16.80
2019-04-04T11:12:16.718Z,15.70
2019-04-04T11:13:16.695Z,16.30
2019-04-04T11:14:16.675Z,15.70
2019-04-04T11:15:16.652Z,19.80
2019-04-04T11:16:24.536Z,15.90
2019-04-04T11:17:16.617Z,15.90
2019-04-04T11:18:16.592Z,15.80
2019-04-04T11:19:16.572Z,17.70
2019-04-04T11:20:16.545Z,14.80
2019-04-04T11:21:16.526Z,15.70
2019-04-04T11:22:16.509Z,15.60
2019-04-04T11:23:16.488Z,14.30
2019-04-04T11:24:16.463Z,15.60
2019-04-04T11:25:16.441Z,15.10
2019-04-04T11:26:16.429Z,15.40
2019-04-04T11:27:17.646Z,17.50
2019-04-04T11:28:16.388Z,16.10
2019-04-04T11:29:16.361Z,17.60
2019-04-04T11:30:16.340Z,17.80
2019-04-04T11:31:16.320Z,16.00
2019-04-04T11:32:16.324Z,15.00
2019-04-04T11:33:16.275Z,18.40
2019-04-04T11:34:16.254Z,14.20
2019-04-04T11:35:16.237Z,15.60
2019-04-04T11:36:16.226Z,15.30
2019-04-04T11:37:16.260Z,16.40
2019-04-04T11:38:16.173Z,14.20
2019-04-04T11:39:16.152Z,14.00
2019-04-04T11:40:16.164Z,15.80
2019-04-04T11:41:16.118Z,16.50
2019-04-04T11:42:16.107Z,15.90
2019-04-04T11:43:16.066Z,16.40
2019-04-04T11:44:16.052Z,20.00
2019-04-04T11:45:16.033Z,15.80
2019-04-04T11:46:16.006Z,18.70
2019-04-04T11:47:15.989Z,17.90
2019-04-04T11:48:15.966Z,18.20
2019-04-04T11:49:15.943Z,16.50
2019-04-04T11:50:15.922Z,18.40
2019-04-04T11:51:15.912Z,18.50
2019-04-04T11:52:15.881Z,18.00
2019-04-04T11:53:15.868Z,20.40
2019-04-04T11:54:15.852Z,20.00
2019-04-04T11:55:15.822Z,16.80
2019-04-04T11:56:15.796Z,18.40
2019-04-04T11:57:15.775Z,18.30
2019-04-04T11:58:15.757Z,16.60
2019-04-04T11:59:15.732Z,20.00
2019-04-04T12:00:15.712Z,19.70
2019-04-04T12:01:15.692Z,17.10
2019-04-04T12:02:15.678Z,23.00
2019-04-04T12:03:15.655Z,20.00
2019-04-04T12:04:15.628Z,18.70
2019-04-04T12:05:15.606Z,19.70
2019-04-04T12:06:15.585Z,18.10
2019-04-04T12:07:15.569Z,19.60
2019-04-04T12:08:15.544Z,18.70
2019-04-04T12:09:15.522Z,18.50
2019-04-04T12:10:15.500Z,17.70
2019-04-04T12:11:15.478Z,19.30
2019-04-04T12:12:15.458Z,19.40
2019-04-04T12:13:15.437Z,18.90
2019-04-04T12:14:15.416Z,19.40
2019-04-04T12:15:15.393Z,19.30
2019-04-04T12:16:15.373Z,21.30
2019-04-04T12:17:15.350Z,19.20
2019-04-04T12:18:15.329Z,17.70
2019-04-04T12:19:15.308Z,17.30
2019-04-04T12:20:15.287Z,16.00
2019-04-04T12:21:15.265Z,17.10
2019-04-04T12:22:15.251Z,16.30
2019-04-04T12:23:15.224Z,18.90
2019-04-04T12:24:15.201Z,16.70
2019-04-04T12:25:15.178Z,18.00
2019-04-04T12:26:15.164Z,16.90
2019-04-04T12:27:15.136Z,16.80
2019-04-04T12:28:15.115Z,16.50
2019-04-04T12:29:15.103Z,18.60
2019-04-04T12:30:15.081Z,15.40
2019-04-04T12:31:15.050Z,19.20
2019-04-04T12:32:15.039Z,14.80
2019-04-04T12:33:15.007Z,21.60
2019-04-04T12:34:14.993Z,18.10
2019-04-04T12:35:14.972Z,18.40
2019-04-04T12:36:24.070Z,20.70
2019-04-04T12:37:14.937Z,16.20
2019-04-04T12:38:14.902Z,17.20
2019-04-04T12:39:14.879Z,17.40
2019-04-04T12:40:20.906Z,18.00
2019-04-04T12:41:14.837Z,22.10
2019-04-04T12:42:14.822Z,16.80
2019-04-04T12:43:14.803Z,19.60
2019-04-04T12:44:14.817Z,16.30
2019-04-04T12:45:14.756Z,18.60
2019-04-04T12:46:14.743Z,19.40
2019-04-04T12:47:14.708Z,18.70
2019-04-04T12:48:14.696Z,20.80
2019-04-04T12:49:14.670Z,17.10
2019-04-04T12:50:14.665Z,21.20
2019-04-04T12:51:14.634Z,16.40
2019-04-04T12:52:14.608Z,17.60